sensor_id;sensor_type;location;lat;lon;timestamp;P1;durP1;ratioP1;P2;durP2;ratioP2
77938;SDS011;67136;47.546;21.630;2024-01-30T00:02:41;25.70;;;10.73;;
77938;SDS011;67136;47.546;21.630;2024-01-30T00:05:45;25.33;;;10.87;;
77938;SDS011;67136;47.546;21.630;2024-01-30T00:08:48;30.42;;;11.63;;
77938;SDS011;67136;47.546;21.630;2024-01-30T00:11:51;29.27;;;12.82;;
77938;SDS011;67136;47.546;21.630;2024-01-30T00:14:53;29.15;;;12.05;;
77938;SDS011;67136;47.546;21.630;2024-01-30T00:17:57;39.00;;;15.65;;
77938;SDS011;67136;47.546;21.630;2024-01-30T00:20:59;33.25;;;13.93;;
77938;SDS011;67136;47.546;21.630;2024-01-30T00:24:02;33.33;;;13.35;;
77938;SDS011;67136;47.546;21.630;2024-01-30T00:27:05;31.03;;;11.73;;
77938;SDS011;67136;47.546;21.630;2024-01-30T00:30:08;28.23;;;11.98;;
77938;SDS011;67136;47.546;21.630;2024-01-30T00:33:10;28.83;;;12.35;;
77938;SDS011;67136;47.546;21.630;2024-01-30T00:36:13;29.33;;;12.70;;
77938;SDS011;67136;47.546;21.630;2024-01-30T00:39:16;34.55;;;14.02;;
77938;SDS011;67136;47.546;21.630;2024-01-30T00:42:22;31.05;;;12.13;;
77938;SDS011;67136;47.546;21.630;2024-01-30T00:45:26;33.72;;;12.57;;
77938;SDS011;67136;47.546;21.630;2024-01-30T00:48:28;24.02;;;11.15;;
77938;SDS011;67136;47.546;21.630;2024-01-30T00:51:31;27.77;;;11.95;;
77938;SDS011;67136;47.546;21.630;2024-01-30T00:54:34;31.20;;;12.13;;
77938;SDS011;67136;47.546;21.630;2024-01-30T00:57:37;31.80;;;12.17;;
77938;SDS011;67136;47.546;21.630;2024-01-30T01:00:40;30.77;;;13.05;;
77938;SDS011;67136;47.546;21.630;2024-01-30T01:03:45;29.08;;;12.07;;
77938;SDS011;67136;47.546;21.630;2024-01-30T01:06:51;30.27;;;12.53;;
77938;SDS011;67136;47.546;21.630;2024-01-30T01:09:59;34.58;;;13.10;;
77938;SDS011;67136;47.546;21.630;2024-01-30T01:13:02;30.73;;;12.30;;
77938;SDS011;67136;47.546;21.630;2024-01-30T01:16:05;34.97;;;12.75;;
77938;SDS011;67136;47.546;21.630;2024-01-30T01:19:08;25.42;;;11.82;;
77938;SDS011;67136;47.546;21.630;2024-01-30T01:22:10;28.30;;;12.57;;
77938;SDS011;67136;47.546;21.630;2024-01-30T01:25:13;30.60;;;13.40;;
77938;SDS011;67136;47.546;21.630;2024-01-30T01:28:16;31.40;;;13.07;;
77938;SDS011;67136;47.546;21.630;2024-01-30T01:31:19;28.55;;;12.80;;
77938;SDS011;67136;47.546;21.630;2024-01-30T01:34:22;34.00;;;13.25;;
77938;SDS011;67136;47.546;21.630;2024-01-30T01:37:31;31.53;;;13.83;;
77938;SDS011;67136;47.546;21.630;2024-01-30T01:40:34;28.12;;;12.23;;
77938;SDS011;67136;47.546;21.630;2024-01-30T01:43:41;32.00;;;12.50;;
77938;SDS011;67136;47.546;21.630;2024-01-30T01:46:47;31.80;;;13.73;;
77938;SDS011;67136;47.546;21.630;2024-01-30T01:49:50;32.42;;;13.32;;
77938;SDS011;67136;47.546;21.630;2024-01-30T01:52:54;37.10;;;14.70;;
77938;SDS011;67136;47.546;21.630;2024-01-30T01:55:57;30.27;;;13.70;;
77938;SDS011;67136;47.546;21.630;2024-01-30T01:59:04;30.30;;;14.10;;
77938;SDS011;67136;47.546;21.630;2024-01-30T02:02:12;34.58;;;13.93;;
77938;SDS011;67136;47.546;21.630;2024-01-30T02:05:20;31.80;;;13.38;;
77938;SDS011;67136;47.546;21.630;2024-01-30T02:08:24;27.83;;;13.13;;
77938;SDS011;67136;47.546;21.630;2024-01-30T02:11:28;37.63;;;13.82;;
77938;SDS011;67136;47.546;21.630;2024-01-30T02:14:31;40.85;;;14.02;;
77938;SDS011;67136;47.546;21.630;2024-01-30T02:17:34;33.53;;;13.65;;
77938;SDS011;67136;47.546;21.630;2024-01-30T02:20:37;28.53;;;13.47;;
77938;SDS011;67136;47.546;21.630;2024-01-30T02:23:41;38.53;;;14.30;;
77938;SDS011;67136;47.546;21.630;2024-01-30T02:26:45;29.35;;;13.80;;
77938;SDS011;67136;47.546;21.630;2024-01-30T02:29:51;38.53;;;16.00;;
77938;SDS011;67136;47.546;21.630;2024-01-30T02:32:54;34.03;;;12.65;;
77938;SDS011;67136;47.546;21.630;2024-01-30T02:35:56;28.48;;;12.65;;
77938;SDS011;67136;47.546;21.630;2024-01-30T02:38:59;34.55;;;13.23;;
77938;SDS011;67136;47.546;21.630;2024-01-30T02:42:02;32.03;;;13.55;;
77938;SDS011;67136;47.546;21.630;2024-01-30T02:45:05;37.17;;;13.27;;
77938;SDS011;67136;47.546;21.630;2024-01-30T02:48:08;33.05;;;13.13;;
77938;SDS011;67136;47.546;21.630;2024-01-30T02:51:10;35.20;;;14.17;;
77938;SDS011;67136;47.546;21.630;2024-01-30T02:54:13;35.47;;;14.38;;
77938;SDS011;67136;47.546;21.630;2024-01-30T02:57:16;31.60;;;13.88;;
77938;SDS011;67136;47.546;21.630;2024-01-30T03:00:21;37.83;;;14.73;;
77938;SDS011;67136;47.546;21.630;2024-01-30T03:03:24;30.90;;;14.35;;
77938;SDS011;67136;47.546;21.630;2024-01-30T03:06:27;36.70;;;14.95;;
77938;SDS011;67136;47.546;21.630;2024-01-30T03:09:29;38.65;;;16.35;;
77938;SDS011;67136;47.546;21.630;2024-01-30T03:12:32;34.97;;;14.43;;
77938;SDS011;67136;47.546;21.630;2024-01-30T03:15:35;34.78;;;15.60;;
77938;SDS011;67136;47.546;21.630;2024-01-30T03:18:38;38.60;;;15.00;;
77938;SDS011;67136;47.546;21.630;2024-01-30T03:21:43;36.13;;;15.03;;
77938;SDS011;67136;47.546;21.630;2024-01-30T03:24:46;39.58;;;16.65;;
77938;SDS011;67136;47.546;21.630;2024-01-30T03:27:49;32.35;;;14.50;;
77938;SDS011;67136;47.546;21.630;2024-01-30T03:30:52;34.40;;;15.73;;
77938;SDS011;67136;47.546;21.630;2024-01-30T03:33:54;38.83;;;16.15;;
77938;SDS011;67136;47.546;21.630;2024-01-30T03:36:57;39.13;;;16.50;;
77938;SDS011;67136;47.546;21.630;2024-01-30T03:40:00;41.83;;;16.12;;
77938;SDS011;67136;47.546;21.630;2024-01-30T03:43:03;43.13;;;15.87;;
77938;SDS011;67136;47.546;21.630;2024-01-30T03:46:08;38.55;;;16.23;;
77938;SDS011;67136;47.546;21.630;2024-01-30T03:49:11;35.78;;;14.90;;
77938;SDS011;67136;47.546;21.630;2024-01-30T03:52:13;35.03;;;14.27;;
77938;SDS011;67136;47.546;21.630;2024-01-30T03:55:16;34.15;;;15.25;;
77938;SDS011;67136;47.546;21.630;2024-01-30T03:58:20;37.53;;;15.68;;
77938;SDS011;67136;47.546;21.630;2024-01-30T04:01:23;38.92;;;15.57;;
77938;SDS011;67136;47.546;21.630;2024-01-30T04:04:26;36.47;;;16.20;;
77938;SDS011;67136;47.546;21.630;2024-01-30T04:07:28;37.22;;;15.80;;
77938;SDS011;67136;47.546;21.630;2024-01-30T04:10:33;33.78;;;14.73;;
77938;SDS011;67136;47.546;21.630;2024-01-30T04:13:36;33.57;;;14.57;;
77938;SDS011;67136;47.546;21.630;2024-01-30T04:16:39;39.65;;;16.40;;
77938;SDS011;67136;47.546;21.630;2024-01-30T04:19:41;40.47;;;15.82;;
77938;SDS011;67136;47.546;21.630;2024-01-30T04:22:44;33.40;;;16.05;;
77938;SDS011;67136;47.546;21.630;2024-01-30T04:25:48;44.30;;;16.23;;
77938;SDS011;67136;47.546;21.630;2024-01-30T04:28:51;36.83;;;15.70;;
77938;SDS011;67136;47.546;21.630;2024-01-30T04:31:54;34.80;;;15.60;;
77938;SDS011;67136;47.546;21.630;2024-01-30T04:34:58;41.57;;;18.20;;
77938;SDS011;67136;47.546;21.630;2024-01-30T04:38:07;40.08;;;15.85;;
77938;SDS011;67136;47.546;21.630;2024-01-30T04:41:13;45.88;;;16.67;;
77938;SDS011;67136;47.546;21.630;2024-01-30T04:44:16;42.72;;;16.55;;
77938;SDS011;67136;47.546;21.630;2024-01-30T04:47:18;37.75;;;16.37;;
77938;SDS011;67136;47.546;21.630;2024-01-30T04:50:21;43.45;;;16.90;;
77938;SDS011;67136;47.546;21.630;2024-01-30T04:53:27;40.03;;;17.52;;
77938;SDS011;67136;47.546;21.630;2024-01-30T04:56:29;42.53;;;17.17;;
77938;SDS011;67136;47.546;21.630;2024-01-30T04:59:34;40.22;;;17.15;;
77938;SDS011;67136;47.546;21.630;2024-01-30T05:02:36;46.80;;;17.30;;
77938;SDS011;67136;47.546;21.630;2024-01-30T05:05:42;43.70;;;18.70;;
77938;SDS011;67136;47.546;21.630;2024-01-30T05:08:47;42.08;;;17.92;;
77938;SDS011;67136;47.546;21.630;2024-01-30T05:11:50;36.55;;;17.77;;
77938;SDS011;67136;47.546;21.630;2024-01-30T05:14:53;44.67;;;19.55;;
77938;SDS011;67136;47.546;21.630;2024-01-30T05:17:56;48.53;;;18.95;;
77938;SDS011;67136;47.546;21.630;2024-01-30T05:20:59;38.08;;;17.37;;
77938;SDS011;67136;47.546;21.630;2024-01-30T05:24:02;46.55;;;18.50;;
77938;SDS011;67136;47.546;21.630;2024-01-30T05:27:06;48.00;;;18.93;;
77938;SDS011;67136;47.546;21.630;2024-01-30T05:30:09;43.83;;;19.55;;
77938;SDS011;67136;47.546;21.630;2024-01-30T05:33:14;46.97;;;20.37;;
77938;SDS011;67136;47.546;21.630;2024-01-30T05:36:17;47.62;;;20.15;;
77938;SDS011;67136;47.546;21.630;2024-01-30T05:39:19;40.83;;;18.90;;
77938;SDS011;67136;47.546;21.630;2024-01-30T05:42:22;48.40;;;19.65;;
77938;SDS011;67136;47.546;21.630;2024-01-30T05:45:24;49.53;;;21.02;;
77938;SDS011;67136;47.546;21.630;2024-01-30T05:48:27;56.83;;;21.77;;
77938;SDS011;67136;47.546;21.630;2024-01-30T05:51:32;47.25;;;20.08;;
77938;SDS011;67136;47.546;21.630;2024-01-30T05:54:38;47.50;;;20.88;;
77938;SDS011;67136;47.546;21.630;2024-01-30T05:57:40;54.57;;;21.40;;
77938;SDS011;67136;47.546;21.630;2024-01-30T06:00:43;51.15;;;23.48;;
77938;SDS011;67136;47.546;21.630;2024-01-30T06:03:46;48.78;;;22.17;;
77938;SDS011;67136;47.546;21.630;2024-01-30T06:06:52;55.20;;;23.80;;
77938;SDS011;67136;47.546;21.630;2024-01-30T06:09:55;54.00;;;22.23;;
77938;SDS011;67136;47.546;21.630;2024-01-30T06:12:58;57.28;;;22.92;;
77938;SDS011;67136;47.546;21.630;2024-01-30T06:16:00;53.67;;;23.35;;
77938;SDS011;67136;47.546;21.630;2024-01-30T06:19:09;58.97;;;24.23;;
77938;SDS011;67136;47.546;21.630;2024-01-30T06:22:12;69.47;;;25.20;;
77938;SDS011;67136;47.546;21.630;2024-01-30T06:25:15;57.62;;;24.37;;
77938;SDS011;67136;47.546;21.630;2024-01-30T06:28:19;56.83;;;25.43;;
77938;SDS011;67136;47.546;21.630;2024-01-30T06:31:26;63.08;;;24.75;;
77938;SDS011;67136;47.546;21.630;2024-01-30T06:34:29;62.92;;;25.88;;
77938;SDS011;67136;47.546;21.630;2024-01-30T06:37:33;65.53;;;27.50;;
77938;SDS011;67136;47.546;21.630;2024-01-30T06:40:36;58.38;;;26.73;;
77938;SDS011;67136;47.546;21.630;2024-01-30T06:43:41;68.95;;;26.48;;
77938;SDS011;67136;47.546;21.630;2024-01-30T06:46:47;60.83;;;27.13;;
77938;SDS011;67136;47.546;21.630;2024-01-30T06:49:50;67.03;;;26.77;;
77938;SDS011;67136;47.546;21.630;2024-01-30T06:52:53;61.15;;;27.85;;
77938;SDS011;67136;47.546;21.630;2024-01-30T06:55:55;56.10;;;26.25;;
77938;SDS011;67136;47.546;21.630;2024-01-30T06:58:58;81.47;;;32.88;;
77938;SDS011;67136;47.546;21.630;2024-01-30T07:02:01;63.50;;;27.02;;
77938;SDS011;67136;47.546;21.630;2024-01-30T07:05:05;66.10;;;27.67;;
77938;SDS011;67136;47.546;21.630;2024-01-30T07:08:08;53.38;;;24.70;;
77938;SDS011;67136;47.546;21.630;2024-01-30T07:11:17;41.30;;;19.30;;
77938;SDS011;67136;47.546;21.630;2024-01-30T07:14:21;36.93;;;16.60;;
77938;SDS011;67136;47.546;21.630;2024-01-30T07:17:23;21.27;;;10.48;;
77938;SDS011;67136;47.546;21.630;2024-01-30T07:20:26;23.35;;;9.85;;
77938;SDS011;67136;47.546;21.630;2024-01-30T07:23:31;17.23;;;8.40;;
77938;SDS011;67136;47.546;21.630;2024-01-30T07:26:36;19.85;;;9.18;;
77938;SDS011;67136;47.546;21.630;2024-01-30T07:29:38;18.67;;;9.00;;
77938;SDS011;67136;47.546;21.630;2024-01-30T07:32:43;19.90;;;8.87;;
77938;SDS011;67136;47.546;21.630;2024-01-30T07:35:46;17.60;;;7.75;;
77938;SDS011;67136;47.546;21.630;2024-01-30T07:38:50;15.35;;;8.07;;
77938;SDS011;67136;47.546;21.630;2024-01-30T07:41:56;17.23;;;8.57;;
77938;SDS011;67136;47.546;21.630;2024-01-30T07:44:59;19.60;;;8.73;;
77938;SDS011;67136;47.546;21.630;2024-01-30T07:48:05;14.23;;;7.50;;
77938;SDS011;67136;47.546;21.630;2024-01-30T07:51:08;18.23;;;8.82;;
77938;SDS011;67136;47.546;21.630;2024-01-30T07:54:11;21.02;;;9.93;;
77938;SDS011;67136;47.546;21.630;2024-01-30T07:57:13;18.77;;;8.35;;
77938;SDS011;67136;47.546;21.630;2024-01-30T08:00:17;20.37;;;9.97;;
77938;SDS011;67136;47.546;21.630;2024-01-30T08:03:20;19.33;;;10.20;;
77938;SDS011;67136;47.546;21.630;2024-01-30T08:06:23;21.17;;;9.10;;
77938;SDS011;67136;47.546;21.630;2024-01-30T08:09:26;20.98;;;9.48;;
77938;SDS011;67136;47.546;21.630;2024-01-30T08:12:29;20.80;;;10.15;;
77938;SDS011;67136;47.546;21.630;2024-01-30T08:15:31;21.90;;;10.43;;
77938;SDS011;67136;47.546;21.630;2024-01-30T08:18:34;24.40;;;10.30;;
77938;SDS011;67136;47.546;21.630;2024-01-30T08:21:37;20.50;;;9.90;;
77938;SDS011;67136;47.546;21.630;2024-01-30T08:24:41;17.52;;;9.13;;
77938;SDS011;67136;47.546;21.630;2024-01-30T08:27:45;19.73;;;9.98;;
77938;SDS011;67136;47.546;21.630;2024-01-30T08:30:50;17.33;;;9.47;;
77938;SDS011;67136;47.546;21.630;2024-01-30T08:33:53;18.97;;;9.87;;
77938;SDS011;67136;47.546;21.630;2024-01-30T08:37:01;19.05;;;9.80;;
77938;SDS011;67136;47.546;21.630;2024-01-30T08:40:06;20.88;;;9.95;;
77938;SDS011;67136;47.546;21.630;2024-01-30T08:43:10;15.95;;;7.93;;
77938;SDS011;67136;47.546;21.630;2024-01-30T08:46:19;20.97;;;8.67;;
77938;SDS011;67136;47.546;21.630;2024-01-30T08:49:22;16.90;;;8.47;;
77938;SDS011;67136;47.546;21.630;2024-01-30T08:52:27;20.15;;;9.13;;
77938;SDS011;67136;47.546;21.630;2024-01-30T08:55:30;16.87;;;8.20;;
77938;SDS011;67136;47.546;21.630;2024-01-30T08:58:33;17.48;;;8.27;;
77938;SDS011;67136;47.546;21.630;2024-01-30T09:01:36;19.00;;;8.67;;
77938;SDS011;67136;47.546;21.630;2024-01-30T09:04:39;16.27;;;8.20;;
77938;SDS011;67136;47.546;21.630;2024-01-30T09:07:42;17.00;;;8.38;;
77938;SDS011;67136;47.546;21.630;2024-01-30T09:10:46;19.40;;;8.43;;
77938;SDS011;67136;47.546;21.630;2024-01-30T09:13:48;15.02;;;7.53;;
77938;SDS011;67136;47.546;21.630;2024-01-30T09:16:51;19.07;;;8.63;;
77938;SDS011;67136;47.546;21.630;2024-01-30T09:19:54;22.07;;;8.43;;
77938;SDS011;67136;47.546;21.630;2024-01-30T09:22:59;14.38;;;7.85;;
77938;SDS011;67136;47.546;21.630;2024-01-30T09:26:01;19.27;;;8.57;;
77938;SDS011;67136;47.546;21.630;2024-01-30T09:29:04;19.20;;;8.45;;
77938;SDS011;67136;47.546;21.630;2024-01-30T09:32:07;17.90;;;7.67;;
77938;SDS011;67136;47.546;21.630;2024-01-30T09:35:11;17.93;;;7.70;;
77938;SDS011;67136;47.546;21.630;2024-01-30T09:38:16;14.55;;;7.30;;
77938;SDS011;67136;47.546;21.630;2024-01-30T09:41:19;14.07;;;7.35;;
77938;SDS011;67136;47.546;21.630;2024-01-30T09:44:26;13.98;;;5.62;;
77938;SDS011;67136;47.546;21.630;2024-01-30T09:47:32;14.00;;;6.07;;
77938;SDS011;67136;47.546;21.630;2024-01-30T09:50:46;13.23;;;6.03;;
77938;SDS011;67136;47.546;21.630;2024-01-30T09:53:49;14.63;;;7.43;;
77938;SDS011;67136;47.546;21.630;2024-01-30T09:56:51;9.70;;;5.85;;
77938;SDS011;67136;47.546;21.630;2024-01-30T09:59:54;12.10;;;6.37;;
77938;SDS011;67136;47.546;21.630;2024-01-30T10:02:57;14.37;;;6.33;;
77938;SDS011;67136;47.546;21.630;2024-01-30T10:06:00;12.77;;;6.40;;
77938;SDS011;67136;47.546;21.630;2024-01-30T10:09:03;10.65;;;5.35;;
77938;SDS011;67136;47.546;21.630;2024-01-30T10:12:08;11.60;;;5.93;;
77938;SDS011;67136;47.546;21.630;2024-01-30T10:15:11;10.60;;;5.85;;
77938;SDS011;67136;47.546;21.630;2024-01-30T10:18:15;13.00;;;6.40;;
77938;SDS011;67136;47.546;21.630;2024-01-30T10:21:19;11.27;;;6.13;;
77938;SDS011;67136;47.546;21.630;2024-01-30T10:24:25;11.48;;;6.65;;
77938;SDS011;67136;47.546;21.630;2024-01-30T10:27:29;14.25;;;6.95;;
77938;SDS011;67136;47.546;21.630;2024-01-30T10:30:32;11.90;;;6.37;;
77938;SDS011;67136;47.546;21.630;2024-01-30T10:33:35;13.83;;;5.80;;
77938;SDS011;67136;47.546;21.630;2024-01-30T10:36:41;17.70;;;6.97;;
77938;SDS011;67136;47.546;21.630;2024-01-30T10:39:49;13.23;;;6.95;;
77938;SDS011;67136;47.546;21.630;2024-01-30T10:42:55;13.27;;;7.40;;
77938;SDS011;67136;47.546;21.630;2024-01-30T10:46:02;12.73;;;7.12;;
77938;SDS011;67136;47.546;21.630;2024-01-30T10:49:13;12.30;;;7.03;;
77938;SDS011;67136;47.546;21.630;2024-01-30T10:52:17;15.57;;;7.20;;
77938;SDS011;67136;47.546;21.630;2024-01-30T10:55:21;15.77;;;7.35;;
77938;SDS011;67136;47.546;21.630;2024-01-30T10:58:26;13.05;;;6.82;;
77938;SDS011;67136;47.546;21.630;2024-01-30T11:01:29;15.05;;;6.93;;
77938;SDS011;67136;47.546;21.630;2024-01-30T11:04:42;13.30;;;7.10;;
77938;SDS011;67136;47.546;21.630;2024-01-30T11:07:45;11.60;;;6.70;;
77938;SDS011;67136;47.546;21.630;2024-01-30T11:10:48;12.27;;;6.28;;
77938;SDS011;67136;47.546;21.630;2024-01-30T11:13:51;12.20;;;6.28;;
77938;SDS011;67136;47.546;21.630;2024-01-30T11:16:58;10.50;;;6.18;;
77938;SDS011;67136;47.546;21.630;2024-01-30T11:20:09;10.97;;;6.63;;
77938;SDS011;67136;47.546;21.630;2024-01-30T11:23:17;11.47;;;6.57;;
77938;SDS011;67136;47.546;21.630;2024-01-30T11:26:23;11.30;;;6.47;;
77938;SDS011;67136;47.546;21.630;2024-01-30T11:29:30;12.13;;;6.28;;
77938;SDS011;67136;47.546;21.630;2024-01-30T11:32:33;12.37;;;6.78;;
77938;SDS011;67136;47.546;21.630;2024-01-30T11:35:36;10.00;;;6.57;;
77938;SDS011;67136;47.546;21.630;2024-01-30T11:38:44;13.03;;;6.97;;
77938;SDS011;67136;47.546;21.630;2024-01-30T11:41:50;12.32;;;6.93;;
77938;SDS011;67136;47.546;21.630;2024-01-30T11:44:54;10.98;;;7.05;;
77938;SDS011;67136;47.546;21.630;2024-01-30T11:47:56;15.05;;;7.32;;
77938;SDS011;67136;47.546;21.630;2024-01-30T11:51:02;12.37;;;7.67;;
77938;SDS011;67136;47.546;21.630;2024-01-30T11:54:05;12.93;;;7.60;;
77938;SDS011;67136;47.546;21.630;2024-01-30T11:57:21;11.77;;;7.10;;
77938;SDS011;67136;47.546;21.630;2024-01-30T12:00:27;13.60;;;6.75;;
77938;SDS011;67136;47.546;21.630;2024-01-30T12:03:29;11.93;;;7.03;;
77938;SDS011;67136;47.546;21.630;2024-01-30T12:06:32;12.67;;;6.97;;
77938;SDS011;67136;47.546;21.630;2024-01-30T12:09:42;12.93;;;6.93;;
77938;SDS011;67136;47.546;21.630;2024-01-30T12:12:51;13.73;;;6.97;;
77938;SDS011;67136;47.546;21.630;2024-01-30T12:15:55;11.68;;;7.07;;
77938;SDS011;67136;47.546;21.630;2024-01-30T12:19:01;11.27;;;6.55;;
77938;SDS011;67136;47.546;21.630;2024-01-30T12:22:04;13.53;;;7.50;;
77938;SDS011;67136;47.546;21.630;2024-01-30T12:25:07;11.93;;;7.43;;
77938;SDS011;67136;47.546;21.630;2024-01-30T12:28:17;11.60;;;7.50;;
77938;SDS011;67136;47.546;21.630;2024-01-30T12:31:25;11.60;;;7.30;;
77938;SDS011;67136;47.546;21.630;2024-01-30T12:34:32;14.18;;;7.82;;
77938;SDS011;67136;47.546;21.630;2024-01-30T12:37:50;14.33;;;7.97;;
77938;SDS011;67136;47.546;21.630;2024-01-30T12:40:55;14.57;;;8.00;;
77938;SDS011;67136;47.546;21.630;2024-01-30T12:44:00;13.13;;;8.10;;
77938;SDS011;67136;47.546;21.630;2024-01-30T12:47:04;13.32;;;7.68;;
77938;SDS011;67136;47.546;21.630;2024-01-30T12:50:06;11.70;;;6.95;;
77938;SDS011;67136;47.546;21.630;2024-01-30T12:53:09;13.40;;;8.47;;
77938;SDS011;67136;47.546;21.630;2024-01-30T12:56:12;15.00;;;7.93;;
77938;SDS011;67136;47.546;21.630;2024-01-30T12:59:15;13.50;;;8.18;;
77938;SDS011;67136;47.546;21.630;2024-01-30T13:02:18;13.07;;;7.87;;
77938;SDS011;67136;47.546;21.630;2024-01-30T13:05:21;12.25;;;7.68;;
77938;SDS011;67136;47.546;21.630;2024-01-30T13:08:24;14.73;;;7.40;;
77938;SDS011;67136;47.546;21.630;2024-01-30T13:11:28;13.67;;;8.13;;
77938;SDS011;67136;47.546;21.630;2024-01-30T13:14:30;14.38;;;8.98;;
77938;SDS011;67136;47.546;21.630;2024-01-30T13:17:37;12.52;;;7.68;;
77938;SDS011;67136;47.546;21.630;2024-01-30T13:20:39;14.75;;;8.77;;
77938;SDS011;67136;47.546;21.630;2024-01-30T13:23:43;14.30;;;8.90;;
77938;SDS011;67136;47.546;21.630;2024-01-30T13:26:46;16.80;;;10.13;;
77938;SDS011;67136;47.546;21.630;2024-01-30T13:29:54;17.10;;;9.30;;
77938;SDS011;67136;47.546;21.630;2024-01-30T13:32:57;16.73;;;9.65;;
77938;SDS011;67136;47.546;21.630;2024-01-30T13:36:10;19.02;;;9.93;;
77938;SDS011;67136;47.546;21.630;2024-01-30T13:39:14;19.30;;;10.97;;
77938;SDS011;67136;47.546;21.630;2024-01-30T13:42:24;19.33;;;10.43;;
77938;SDS011;67136;47.546;21.630;2024-01-30T13:45:27;19.08;;;10.60;;
77938;SDS011;67136;47.546;21.630;2024-01-30T13:48:31;19.08;;;11.52;;
77938;SDS011;67136;47.546;21.630;2024-01-30T13:51:34;19.73;;;10.68;;
77938;SDS011;67136;47.546;21.630;2024-01-30T13:54:37;21.80;;;12.07;;
77938;SDS011;67136;47.546;21.630;2024-01-30T13:57:40;21.07;;;11.27;;
77938;SDS011;67136;47.546;21.630;2024-01-30T14:00:44;19.83;;;11.15;;
77938;SDS011;67136;47.546;21.630;2024-01-30T14:03:47;20.90;;;11.40;;
77938;SDS011;67136;47.546;21.630;2024-01-30T14:06:50;21.12;;;11.52;;
77938;SDS011;67136;47.546;21.630;2024-01-30T14:10:06;21.63;;;12.23;;
77938;SDS011;67136;47.546;21.630;2024-01-30T14:13:15;19.20;;;11.70;;
77938;SDS011;67136;47.546;21.630;2024-01-30T14:16:22;22.90;;;12.15;;
77938;SDS011;67136;47.546;21.630;2024-01-30T14:19:26;19.62;;;11.07;;
77938;SDS011;67136;47.546;21.630;2024-01-30T14:22:29;20.52;;;11.25;;
77938;SDS011;67136;47.546;21.630;2024-01-30T14:25:32;22.33;;;11.33;;
77938;SDS011;67136;47.546;21.630;2024-01-30T14:28:38;21.70;;;11.93;;
77938;SDS011;67136;47.546;21.630;2024-01-30T14:31:40;23.70;;;11.77;;
77938;SDS011;67136;47.546;21.630;2024-01-30T14:34:43;22.73;;;12.05;;
77938;SDS011;67136;47.546;21.630;2024-01-30T14:37:46;23.87;;;11.70;;
77938;SDS011;67136;47.546;21.630;2024-01-30T14:40:49;19.93;;;11.03;;
77938;SDS011;67136;47.546;21.630;2024-01-30T14:43:51;24.13;;;11.67;;
77938;SDS011;67136;47.546;21.630;2024-01-30T14:46:54;22.00;;;11.05;;
77938;SDS011;67136;47.546;21.630;2024-01-30T14:49:57;25.30;;;11.73;;
77938;SDS011;67136;47.546;21.630;2024-01-30T14:53:00;24.50;;;12.10;;
77938;SDS011;67136;47.546;21.630;2024-01-30T14:56:03;23.10;;;11.43;;
77938;SDS011;67136;47.546;21.630;2024-01-30T14:59:09;22.20;;;12.57;;
77938;SDS011;67136;47.546;21.630;2024-01-30T15:02:12;25.73;;;12.50;;
77938;SDS011;67136;47.546;21.630;2024-01-30T15:05:17;26.00;;;12.63;;
77938;SDS011;67136;47.546;21.630;2024-01-30T15:08:20;22.50;;;11.07;;
77938;SDS011;67136;47.546;21.630;2024-01-30T15:11:26;26.57;;;11.73;;
77938;SDS011;67136;47.546;21.630;2024-01-30T15:14:34;23.90;;;11.47;;
77938;SDS011;67136;47.546;21.630;2024-01-30T15:17:38;23.95;;;11.20;;
77938;SDS011;67136;47.546;21.630;2024-01-30T15:20:41;21.52;;;10.32;;
77938;SDS011;67136;47.546;21.630;2024-01-30T15:23:44;21.27;;;10.60;;
77938;SDS011;67136;47.546;21.630;2024-01-30T15:26:47;21.50;;;10.27;;
77938;SDS011;67136;47.546;21.630;2024-01-30T15:29:50;23.20;;;10.07;;
77938;SDS011;67136;47.546;21.630;2024-01-30T15:32:55;21.60;;;10.73;;
77938;SDS011;67136;47.546;21.630;2024-01-30T15:35:58;18.95;;;9.80;;
77938;SDS011;67136;47.546;21.630;2024-01-30T15:39:04;21.23;;;9.35;;
77938;SDS011;67136;47.546;21.630;2024-01-30T15:42:07;24.30;;;10.37;;
77938;SDS011;67136;47.546;21.630;2024-01-30T15:45:10;23.13;;;10.23;;
77938;SDS011;67136;47.546;21.630;2024-01-30T15:48:13;28.55;;;11.40;;
77938;SDS011;67136;47.546;21.630;2024-01-30T15:51:18;24.75;;;10.43;;
77938;SDS011;67136;47.546;21.630;2024-01-30T15:54:23;22.42;;;11.23;;
77938;SDS011;67136;47.546;21.630;2024-01-30T15:57:28;24.70;;;10.93;;
77938;SDS011;67136;47.546;21.630;2024-01-30T16:00:32;24.47;;;10.40;;
77938;SDS011;67136;47.546;21.630;2024-01-30T16:03:35;25.52;;;11.02;;
77938;SDS011;67136;47.546;21.630;2024-01-30T16:06:37;21.77;;;11.00;;
77938;SDS011;67136;47.546;21.630;2024-01-30T16:09:41;23.80;;;11.63;;
77938;SDS011;67136;47.546;21.630;2024-01-30T16:12:44;27.07;;;11.20;;
77938;SDS011;67136;47.546;21.630;2024-01-30T16:15:48;24.80;;;10.60;;
77938;SDS011;67136;47.546;21.630;2024-01-30T16:18:51;23.65;;;11.45;;
77938;SDS011;67136;47.546;21.630;2024-01-30T16:21:54;24.92;;;11.90;;
77938;SDS011;67136;47.546;21.630;2024-01-30T16:24:57;29.70;;;13.32;;
77938;SDS011;67136;47.546;21.630;2024-01-30T16:28:04;36.00;;;15.20;;
77938;SDS011;67136;47.546;21.630;2024-01-30T16:31:08;33.67;;;14.20;;
77938;SDS011;67136;47.546;21.630;2024-01-30T16:34:11;31.62;;;12.98;;
77938;SDS011;67136;47.546;21.630;2024-01-30T16:37:14;27.75;;;11.63;;
77938;SDS011;67136;47.546;21.630;2024-01-30T16:40:19;33.25;;;14.07;;
77938;SDS011;67136;47.546;21.630;2024-01-30T16:43:22;22.77;;;11.23;;
77938;SDS011;67136;47.546;21.630;2024-01-30T16:46:25;26.15;;;12.15;;
77938;SDS011;67136;47.546;21.630;2024-01-30T16:49:28;29.20;;;12.82;;
77938;SDS011;67136;47.546;21.630;2024-01-30T16:52:31;29.15;;;12.52;;
77938;SDS011;67136;47.546;21.630;2024-01-30T16:55:33;28.70;;;12.90;;
77938;SDS011;67136;47.546;21.630;2024-01-30T16:58:36;24.57;;;11.67;;
77938;SDS011;67136;47.546;21.630;2024-01-30T17:01:39;26.80;;;12.20;;
77938;SDS011;67136;47.546;21.630;2024-01-30T17:04:41;25.60;;;12.55;;
77938;SDS011;67136;47.546;21.630;2024-01-30T17:07:44;26.90;;;12.32;;
77938;SDS011;67136;47.546;21.630;2024-01-30T17:10:47;34.28;;;12.82;;
77938;SDS011;67136;47.546;21.630;2024-01-30T17:13:52;29.67;;;13.23;;
77938;SDS011;67136;47.546;21.630;2024-01-30T17:16:57;29.48;;;13.27;;
77938;SDS011;67136;47.546;21.630;2024-01-30T17:20:11;30.65;;;13.38;;
77938;SDS011;67136;47.546;21.630;2024-01-30T17:23:16;34.55;;;14.35;;
77938;SDS011;67136;47.546;21.630;2024-01-30T17:26:19;35.17;;;16.23;;
77938;SDS011;67136;47.546;21.630;2024-01-30T17:29:24;32.37;;;14.63;;
77938;SDS011;67136;47.546;21.630;2024-01-30T17:32:29;29.98;;;13.40;;
77938;SDS011;67136;47.546;21.630;2024-01-30T17:35:33;33.22;;;14.35;;
77938;SDS011;67136;47.546;21.630;2024-01-30T17:38:36;35.20;;;15.05;;
77938;SDS011;67136;47.546;21.630;2024-01-30T17:41:39;38.83;;;16.12;;
77938;SDS011;67136;47.546;21.630;2024-01-30T17:44:41;33.75;;;13.90;;
77938;SDS011;67136;47.546;21.630;2024-01-30T17:47:45;33.03;;;14.25;;